Time;durP1;ratioP1;P1;durP2;ratioP2;P2;SDS_P1;SDS_P2;PMS_P1;PMS_P2;Temp;Humidity;BMP_temperature;BMP_pressure;BME280_temperature;BME280_humidity;BME280_pressure;Samples;Min_cycle;Max_cycle;Signal;HPM_P1;HPM_P2
2023/03/17 00:01:43;;;;;;;;;2.00;2.00;;;;;9.94;55.88;100720.59;5031666;28;10588;-67
2023/03/17 00:04:11;;;;;;;;;6.00;5.75;;;;;9.92;55.93;100704.63;5021192;28;10426;-68
2023/03/17 00:06:39;;;;;;;;;5.00;5.00;;;;;9.84;55.77;100721.75;5011654;28;10665;-68
2023/03/17 00:09:13;;;;;;;;;5.00;5.00;;;;;9.83;55.96;100713.84;5013820;28;10717;-67
2023/03/17 00:11:40;;;;;;;;;4.00;4.00;;;;;9.83;55.71;100716.56;5026224;28;10410;-68
2023/03/17 00:14:08;;;;;;;;;6.75;5.75;;;;;9.82;55.66;100721.09;5030534;28;10507;-66
2023/03/17 00:16:41;;;;;;;;;8.50;5.50;;;;;9.85;56.54;100722.59;5031510;28;10719;-67
2023/03/17 00:19:15;;;;;;;;;5.75;5.00;;;;;9.83;56.45;100714.69;5029700;28;10651;-67
2023/03/17 00:21:42;;;;;;;;;5.25;5.00;;;;;9.86;56.49;100711.63;5030657;28;10551;-67
2023/03/17 00:24:12;;;;;;;;;7.75;5.25;;;;;9.85;55.84;100709.13;5023731;28;10560;-66
2023/03/17 00:26:41;;;;;;;;;5.50;4.25;;;;;9.81;55.90;100697.94;5029670;28;10526;-68
2023/03/17 00:29:07;;;;;;;;;6.50;6.00;;;;;9.79;56.21;100689.22;5030663;28;10621;-68
2023/03/17 00:31:35;;;;;;;;;8.50;6.75;;;;;9.74;56.89;100680.91;5029269;28;10603;-68
2023/03/17 00:34:01;;;;;;;;;7.00;7.00;;;;;9.70;56.03;100673.44;5022131;28;10569;-66
2023/03/17 00:36:31;;;;;;;;;5.50;5.50;;;;;9.67;56.43;100677.31;5030509;28;10620;-68
2023/03/17 00:39:02;;;;;;;;;7.00;7.00;;;;;9.68;56.79;100681.66;5030049;28;10432;-68
2023/03/17 00:41:29;;;;;;;;;8.00;7.00;;;;;9.61;56.77;100687.00;5028768;28;10438;-68
2023/03/17 00:43:56;;;;;;;;;5.25;5.25;;;;;9.56;56.40;100688.56;5030334;28;10673;-67
2023/03/17 00:46:34;;;;;;;;;4.75;4.75;;;;;9.60;56.79;100681.78;5024757;28;10618;-67
2023/03/17 00:49:12;;;;;;;;;5.50;5.00;;;;;9.61;57.08;100687.00;5023852;28;10585;-66
2023/03/17 00:51:38;;;;;;;;;7.00;7.00;;;;;9.53;56.92;100688.97;5026070;28;10469;-67
2023/03/17 00:54:05;;;;;;;;;6.75;6.75;;;;;9.48;57.23;100686.00;5013406;28;10690;-67
2023/03/17 00:56:32;;;;;;;;;5.00;5.00;;;;;9.51;56.81;100689.16;5042820;28;10691;-67
2023/03/17 00:58:59;;;;;;;;;4.00;4.00;;;;;9.52;57.26;100696.22;5025568;28;10580;-68
2023/03/17 01:01:25;;;;;;;;;6.00;4.75;;;;;9.50;57.41;100681.28;5010264;28;10600;-67
2023/03/17 01:03:52;;;;;;;;;7.00;7.00;;;;;9.44;57.58;100666.78;5025559;28;10790;-68
2023/03/17 01:06:19;;;;;;;;;6.75;6.00;;;;;9.43;57.03;100657.03;5025572;28;10859;-67
2023/03/17 01:08:46;;;;;;;;;4.75;4.75;;;;;9.43;57.22;100656.19;5014500;28;10792;-67
2023/03/17 01:11:18;;;;;;;;;6.00;5.75;;;;;9.32;57.45;100657.56;5026751;28;10750;-67
2023/03/17 01:13:46;;;;;;;;;7.00;6.00;;;;;9.29;57.92;100664.13;5025366;28;10662;-67
2023/03/17 01:16:14;;;;;;;;;5.50;5.50;;;;;9.30;58.02;100657.72;5010956;28;10660;-67
2023/03/17 01:18:42;;;;;;;;;7.75;5.00;;;;;9.33;57.90;100673.47;5011339;28;10791;-67
2023/03/17 01:21:08;;;;;;;;;5.00;5.00;;;;;9.29;57.72;100666.81;5025881;28;10639;-66
2023/03/17 01:23:35;;;;;;;;;8.25;5.50;;;;;9.27;58.17;100663.47;5014224;28;10665;-67
2023/03/17 01:26:02;;;;;;;;;7.00;7.00;;;;;9.26;57.79;100667.19;5028568;28;10633;-67
2023/03/17 01:28:28;;;;;;;;;5.00;5.00;;;;;9.32;58.27;100671.00;5029555;28;10725;-67
2023/03/17 01:30:55;;;;;;;;;5.25;5.25;;;;;9.33;58.39;100669.97;5028188;28;10807;-67
2023/03/17 01:33:22;;;;;;;;;4.00;4.00;;;;;9.36;58.38;100661.53;5029700;28;10726;-67
2023/03/17 01:35:49;;;;;;;;;8.25;6.00;;;;;9.30;58.34;100662.28;5028090;28;10733;-68
2023/03/17 01:38:17;;;;;;;;;6.25;6.25;;;;;9.29;58.91;100663.31;5027002;28;10882;-67
2023/03/17 01:40:49;;;;;;;;;5.00;5.00;;;;;9.24;58.77;100655.00;5028494;28;10921;-67
2023/03/17 01:43:20;;;;;;;;;5.25;5.00;;;;;9.26;58.36;100655.63;5029868;28;10722;-68
2023/03/17 01:46:11;;;;;;;;;8.00;7.00;;;;;9.26;58.24;100650.25;5028384;28;10738;-68
2023/03/17 01:48:53;;;;;;;;;7.00;7.00;;;;;9.27;58.94;100646.53;5045201;28;10666;-68
2023/03/17 01:51:31;;;;;;;;;4.00;4.00;;;;;9.26;58.58;100648.38;5025143;28;10847;-66
2023/03/17 01:54:00;;;;;;;;;9.00;5.50;;;;;9.24;58.44;100647.75;5029035;28;11418;-67
2023/03/17 01:56:27;;;;;;;;;4.00;4.00;;;;;9.25;58.41;100640.53;5044799;28;10886;-68
2023/03/17 01:58:58;;;;;;;;;7.00;7.00;;;;;9.23;58.65;100629.97;5032495;28;10753;-67
2023/03/17 02:01:30;;;;;;;;;10.75;6.25;;;;;9.26;58.82;100632.28;5029268;28;10879;-67
2023/03/17 02:03:58;;;;;;;;;9.00;9.00;;;;;9.18;58.64;100620.81;5028534;28;10846;-68
2023/03/17 02:06:25;;;;;;;;;9.00;5.50;;;;;9.15;58.60;100619.34;5028018;28;11135;-68
2023/03/17 02:08:52;;;;;;;;;3.50;3.50;;;;;9.18;59.29;100636.94;5015834;28;10913;-67
2023/03/17 02:11:19;;;;;;;;;7.50;5.00;;;;;9.21;58.69;100632.03;5043709;28;10835;-67
2023/03/17 02:13:46;;;;;;;;;2.00;2.00;;;;;9.19;58.67;100627.84;5026989;28;11078;-67
2023/03/17 02:16:15;;;;;;;;;6.50;5.00;;;;;9.18;58.95;100621.66;5044648;28;10803;-68
2023/03/17 02:18:42;;;;;;;;;4.00;4.00;;;;;9.20;58.71;100616.94;5044908;28;10803;-67
2023/03/17 02:21:37;;;;;;;;;7.50;7.00;;;;;9.21;58.67;100621.28;5028146;28;10787;-67
2023/03/17 02:24:17;;;;;;;;;5.25;5.00;;;;;9.21;58.87;100626.66;5022907;28;10829;-67
2023/03/17 02:26:46;;;;;;;;;8.00;5.75;;;;;9.22;58.83;100622.94;5009967;28;10877;-67
2023/03/17 02:29:13;;;;;;;;;5.50;5.50;;;;;9.19;58.91;100627.84;5027246;28;10810;-66
2023/03/17 02:31:39;;;;;;;;;6.75;6.00;;;;;9.22;59.38;100622.09;5029411;28;10922;-67
2023/03/17 02:34:06;;;;;;;;;5.25;4.25;;;;;9.23;58.65;100624.59;5040091;28;10838;-66
2023/03/17 02:36:33;;;;;;;;;3.25;3.25;;;;;9.24;58.52;100617.38;5042329;28;10604;-66
2023/03/17 02:39:00;;;;;;;;;8.25;7.75;;;;;9.20;58.51;100618.78;5029157;28;10693;-68
2023/03/17 02:41:29;;;;;;;;;4.75;4.75;;;;;9.17;58.61;100611.94;5027973;28;10691;-67
2023/03/17 02:43:55;;;;;;;;;6.50;5.75;;;;;9.20;58.98;100611.56;5028019;28;10607;-67
2023/03/17 02:46:22;;;;;;;;;7.00;5.50;;;;;9.21;59.09;100615.06;5031023;28;10904;-67
2023/03/17 02:48:50;;;;;;;;;4.50;4.50;;;;;9.25;58.66;100622.56;5048684;28;10825;-67
2023/03/17 02:51:16;;;;;;;;;5.00;5.00;;;;;9.26;58.33;100624.22;5032091;28;10848;-66
2023/03/17 02:53:43;;;;;;;;;7.50;7.50;;;;;9.27;58.18;100615.13;5033061;28;10927;-66
2023/03/17 02:56:09;;;;;;;;;4.50;4.50;;;;;9.28;58.47;100624.03;5025048;28;11690;-67
2023/03/17 02:58:36;;;;;;;;;4.25;4.25;;;;;9.26;58.75;100624.22;5027967;28;10685;-66
2023/03/17 03:01:03;;;;;;;;;6.00;6.00;;;;;9.26;58.37;100628.75;5025895;28;10723;-67
2023/03/17 03:03:30;;;;;;;;;3.25;3.25;;;;;9.28;58.58;100614.13;5013109;28;10722;-66
2023/03/17 03:05:57;;;;;;;;;3.25;3.25;;;;;9.30;58.31;100614.75;5026330;28;10792;-67
2023/03/17 03:08:24;;;;;;;;;5.00;5.00;;;;;9.29;58.52;100621.16;5028015;28;10892;-65
2023/03/17 03:10:51;;;;;;;;;4.00;4.00;;;;;9.24;58.97;100628.97;5031540;28;10760;-66
2023/03/17 03:13:17;;;;;;;;;5.25;5.00;;;;;9.27;58.43;100623.19;5023134;28;10744;-67
2023/03/17 03:15:44;;;;;;;;;9.00;6.00;;;;;9.26;58.40;100616.16;5025862;28;10673;-66
2023/03/17 03:18:11;;;;;;;;;4.00;4.00;;;;;9.29;58.45;100613.09;5013863;28;10696;-67
2023/03/17 03:20:40;;;;;;;;;5.00;5.00;;;;;9.30;58.44;100608.56;5012838;28;10820;-68
2023/03/17 03:23:06;;;;;;;;;5.00;5.00;;;;;9.31;58.37;100615.56;5012824;28;10659;-67
2023/03/17 03:25:36;;;;;;;;;8.25;6.50;;;;;9.29;58.52;100610.41;5012674;28;11608;-67
2023/03/17 03:28:05;;;;;;;;;4.75;4.75;;;;;9.27;58.89;100601.69;5023994;28;10692;-67
2023/03/17 03:30:32;;;;;;;;;7.50;5.00;;;;;9.28;58.41;100608.75;5018239;28;10577;-67
2023/03/17 03:32:59;;;;;;;;;3.25;2.00;;;;;9.27;58.32;100612.44;5012421;28;10683;-66
2023/03/17 03:35:26;;;;;;;;;5.00;3.50;;;;;9.28;58.35;100627.56;5012213;28;10598;-66
2023/03/17 03:37:53;;;;;;;;;4.25;4.25;;;;;9.29;58.26;100617.63;5011178;28;10741;-67
2023/03/17 03:40:19;;;;;;;;;5.00;4.50;;;;;9.31;58.60;100619.09;5014439;28;10530;-66
2023/03/17 03:42:46;;;;;;;;;5.00;5.00;;;;;9.29;58.52;100609.59;5027114;28;11559;-67
2023/03/17 03:45:12;;;;;;;;;5.00;5.00;;;;;9.27;58.57;100616.97;5027694;28;11395;-66
2023/03/17 03:47:39;;;;;;;;;5.25;5.25;;;;;9.22;58.35;100625.63;5023240;28;10729;-67
2023/03/17 03:50:06;;;;;;;;;5.75;5.75;;;;;9.18;58.35;100621.66;5031769;28;10842;-68
2023/03/17 03:52:33;;;;;;;;;9.25;9.25;;;;;9.21;58.17;100625.81;5032033;28;10919;-66
2023/03/17 03:55:00;;;;;;;;;7.50;5.50;;;;;9.22;57.91;100632.84;5047141;28;11490;-67
2023/03/17 03:57:27;;;;;;;;;5.75;4.75;;;;;9.23;58.50;100635.34;5027101;28;10890;-67
2023/03/17 03:59:53;;;;;;;;;6.00;6.00;;;;;9.21;58.49;100633.88;5018980;28;10667;-67
2023/03/17 04:02:20;;;;;;;;;6.50;5.50;;;;;9.22;58.03;100630.16;5022130;28;10768;-67
2023/03/17 04:04:47;;;;;;;;;5.25;5.25;;;;;9.21;57.80;100629.34;5011509;28;10804;-66
2023/03/17 04:07:13;;;;;;;;;8.00;5.25;;;;;9.21;58.16;100620.44;5027036;28;10867;-67
2023/03/17 04:09:40;;;;;;;;;4.00;4.00;;;;;9.27;58.12;100616.97;5011744;28;10745;-67
2023/03/17 04:12:07;;;;;;;;;5.50;5.50;;;;;9.27;58.13;100619.66;5020848;28;10852;-67
2023/03/17 04:14:33;;;;;;;;;6.25;3.50;;;;;9.28;57.79;100643.66;5020736;28;10838;-66
2023/03/17 04:17:00;;;;;;;;;4.50;4.50;;;;;9.31;58.10;100635.22;5014525;28;10736;-67
2023/03/17 04:19:26;;;;;;;;;5.25;5.25;;;;;9.30;57.66;100646.97;5011630;28;10642;-67
2023/03/17 04:21:53;;;;;;;;;6.50;4.00;;;;;9.33;58.11;100643.91;5011365;28;10732;-67
2023/03/17 04:24:20;;;;;;;;;6.00;6.00;;;;;9.31;57.62;100639.75;5011184;28;10764;-67
2023/03/17 04:26:46;;;;;;;;;5.00;5.00;;;;;9.33;56.68;100635.88;5018597;28;10891;-67
2023/03/17 04:29:14;;;;;;;;;4.00;2.50;;;;;9.34;57.03;100636.69;5018204;28;10749;-67
2023/03/17 04:31:41;;;;;;;;;4.50;4.50;;;;;9.34;57.05;100626.78;5012520;28;10664;-68
2023/03/17 04:34:14;;;;;;;;;5.00;5.00;;;;;9.33;56.69;100626.97;5030541;28;10660;-67
2023/03/17 04:36:41;;;;;;;;;3.00;3.00;;;;;9.34;57.03;100629.47;5030951;28;10876;-68
2023/03/17 04:39:09;;;;;;;;;3.00;3.00;;;;;9.40;57.31;100627.88;5031024;28;10690;-66
2023/03/17 04:41:35;;;;;;;;;3.00;3.00;;;;;9.41;57.42;100625.00;5026320;28;10522;-67
2023/03/17 04:44:02;;;;;;;;;2.50;2.50;;;;;9.38;56.86;100622.69;5016986;28;10671;-66
2023/03/17 04:46:29;;;;;;;;;4.50;4.00;;;;;9.36;56.82;100629.28;5026270;28;10736;-67
2023/03/17 04:48:55;;;;;;;;;5.75;3.00;;;;;9.40;57.02;100635.94;5012983;28;11474;-69
2023/03/17 04:51:22;;;;;;;;;2.75;2.75;;;;;9.41;57.08;100629.53;5014188;28;10609;-67
2023/03/17 04:53:49;;;;;;;;;2.25;2.25;;;;;9.44;57.65;100633.69;5029687;28;10570;-67
2023/03/17 04:56:15;;;;;;;;;5.00;5.00;;;;;9.44;56.50;100634.53;5026333;28;10670;-67
2023/03/17 04:58:42;;;;;;;;;4.00;3.25;;;;;9.45;57.37;100638.88;5011170;28;10567;-67
2023/03/17 05:01:08;;;;;;;;;4.25;3.50;;;;;9.40;56.53;100642.16;5010748;28;10518;-67
2023/03/17 05:03:35;;;;;;;;;3.50;3.50;;;;;9.39;57.06;100621.66;5010911;28;10767;-67
2023/03/17 05:06:03;;;;;;;;;4.00;4.00;;;;;9.39;57.08;100623.50;5015744;28;10576;-67
2023/03/17 05:08:30;;;;;;;;;4.00;4.00;;;;;9.35;57.18;100636.50;5023562;28;10631;-67
2023/03/17 05:10:57;;;;;;;;;4.00;4.00;;;;;9.38;57.18;100644.16;5028948;28;10656;-66
2023/03/17 05:13:24;;;;;;;;;5.00;5.00;;;;;9.38;56.79;100633.44;5016701;28;10723;-66
2023/03/17 05:15:53;;;;;;;;;2.00;2.00;;;;;9.41;56.84;100643.78;5010231;28;10605;-65
2023/03/17 05:18:21;;;;;;;;;5.75;4.00;;;;;9.39;57.30;100640.44;5010637;28;10739;-66
2023/03/17 05:20:48;;;;;;;;;26.00;19.25;;;;;9.36;57.11;100640.88;5025337;28;10475;-66
2023/03/17 05:23:14;;;;;;;;;7.75;7.75;;;;;9.39;57.72;100626.19;5027279;28;11139;-67
2023/03/17 05:25:41;;;;;;;;;6.50;5.75;;;;;9.42;57.06;100628.50;5045245;28;10828;-66
2023/03/17 05:28:08;;;;;;;;;5.00;5.00;;;;;9.38;57.38;100611.94;5016545;28;10615;-67
2023/03/17 05:30:35;;;;;;;;;6.50;5.50;;;;;9.37;57.48;100620.19;5010333;28;10756;-66
2023/03/17 05:33:02;;;;;;;;;2.25;2.25;;;;;9.38;57.08;100609.25;5012324;28;11352;-67
2023/03/17 05:35:29;;;;;;;;;5.00;5.00;;;;;9.35;57.41;100615.00;5013335;28;10537;-67
2023/03/17 05:37:55;;;;;;;;;5.25;5.25;;;;;9.31;57.47;100594.09;5016084;28;10730;-66
2023/03/17 05:40:22;;;;;;;;;6.00;6.00;;;;;9.36;56.81;100591.69;5030128;28;10623;-66
2023/03/17 05:42:50;;;;;;;;;4.50;4.50;;;;;9.40;56.98;100592.97;5014352;28;10657;-65
2023/03/17 05:45:17;;;;;;;;;8.75;5.00;;;;;9.39;56.78;100583.22;5010100;28;10697;-65
2023/03/17 05:47:44;;;;;;;;;4.25;2.50;;;;;9.37;56.86;100596.03;5016749;28;10751;-66
2023/03/17 05:50:11;;;;;;;;;5.00;3.50;;;;;9.41;57.33;100598.13;5028891;28;10522;-66
2023/03/17 05:52:38;;;;;;;;;4.50;4.50;;;;;9.44;57.49;100596.91;5026457;28;10627;-65
2023/03/17 05:55:06;;;;;;;;;4.00;4.00;;;;;9.45;56.86;100595.06;5029809;28;10576;-66
2023/03/17 05:57:32;;;;;;;;;4.00;4.00;;;;;9.47;57.35;100593.00;5013894;28;10719;-65
2023/03/17 05:59:59;;;;;;;;;3.00;2.75;;;;;9.47;57.19;100603.75;5010257;28;10590;-66
2023/03/17 06:02:25;;;;;;;;;3.00;2.50;;;;;9.43;57.65;100607.84;5016207;28;10773;-66
2023/03/17 06:04:52;;;;;;;;;4.25;2.00;;;;;9.44;57.48;100612.19;5019689;28;10505;-66
2023/03/17 06:07:19;;;;;;;;;1.00;1.00;;;;;9.47;57.43;100614.50;5027023;28;10605;-66
2023/03/17 06:09:45;;;;;;;;;5.50;4.00;;;;;9.45;57.73;100617.38;5014981;28;10528;-66
2023/03/17 06:12:12;;;;;;;;;4.00;4.00;;;;;9.46;57.48;100610.16;5029039;28;10666;-65
2023/03/17 06:14:38;;;;;;;;;5.00;3.00;;;;;9.45;57.31;100608.50;5016276;28;10521;-67
2023/03/17 06:17:05;;;;;;;;;4.00;4.00;;;;;9.44;57.98;100620.25;5042495;28;10674;-66
2023/03/17 06:19:31;;;;;;;;;4.00;4.00;;;;;9.45;57.87;100625.44;5016695;28;10528;-67
2023/03/17 06:21:58;;;;;;;;;2.00;2.00;;;;;9.47;57.58;100638.66;5013302;28;10518;-66
2023/03/17 06:24:25;;;;;;;;;4.25;4.25;;;;;9.47;57.72;100636.00;5025454;28;10501;-66
2023/03/17 06:26:51;;;;;;;;;2.00;2.00;;;;;9.45;57.77;100630.81;5033514;28;10516;-66
2023/03/17 06:29:18;;;;;;;;;4.00;2.00;;;;;9.41;57.89;100626.84;5026704;28;10423;-66
2023/03/17 06:31:49;;;;;;;;;6.00;5.25;;;;;9.37;57.99;100618.34;5033143;28;10632;-67
2023/03/17 06:34:17;;;;;;;;;6.50;6.50;;;;;9.35;58.19;100609.63;5022484;28;10662;-66
2023/03/17 06:36:44;;;;;;;;;6.00;5.75;;;;;9.33;58.26;100616.22;5013621;28;10662;-67
2023/03/17 06:39:11;;;;;;;;;4.00;4.00;;;;;9.39;58.76;100612.75;5018541;28;10596;-67
2023/03/17 06:41:37;;;;;;;;;7.75;6.75;;;;;9.61;58.02;100610.91;5013226;28;10589;-66
2023/03/17 06:44:04;;;;;;;;;5.00;5.00;;;;;9.94;57.46;100605.78;5021926;28;10630;-66
2023/03/17 06:46:31;;;;;;;;;3.00;3.00;;;;;9.95;56.99;100603.94;5028384;28;11434;-66
2023/03/17 06:48:58;;;;;;;;;5.75;5.75;;;;;10.13;56.15;100615.03;5023153;28;10575;-66
2023/03/17 06:51:24;;;;;;;;;8.25;5.50;;;;;10.18;56.23;100628.72;5012931;28;10688;-66
2023/03/17 06:53:51;;;;;;;;;7.00;6.50;;;;;10.14;56.44;100622.06;5020423;28;10782;-66
2023/03/17 06:56:17;;;;;;;;;8.00;6.00;;;;;10.11;56.28;100619.78;5032528;28;10428;-67
2023/03/17 06:58:55;;;;;;;;;5.75;5.75;;;;;10.09;56.79;100609.22;5027806;28;10541;-65
2023/03/17 07:01:22;;;;;;;;;5.50;4.25;;;;;10.13;56.58;100615.88;5024142;28;10564;-67
2023/03/17 07:03:48;;;;;;;;;3.50;1.25;;;;;10.32;56.68;100616.19;5025564;28;10530;-66
2023/03/17 07:06:15;;;;;;;;;6.25;5.00;;;;;10.33;56.17;100624.09;5012708;28;10293;-65
2023/03/17 07:08:41;;;;;;;;;7.00;4.75;;;;;10.27;56.11;100626.72;5019198;28;10510;-66
2023/03/17 07:11:08;;;;;;;;;3.50;3.50;;;;;10.26;58.48;100619.69;5025553;28;11093;-69
2023/03/17 07:13:37;;;;;;;;;5.50;5.25;;;;;10.21;57.21;100622.97;5025339;28;10232;-66
2023/03/17 07:16:05;;;;;;;;;5.25;4.00;;;;;10.11;57.07;100627.84;5034801;28;10355;-67
2023/03/17 07:18:32;;;;;;;;;3.50;3.50;;;;;10.07;56.88;100631.94;5027622;28;10403;-68
2023/03/17 07:21:03;;;;;;;;;7.00;5.25;;;;;10.07;57.04;100642.69;5023855;28;10321;-67
2023/03/17 07:23:29;;;;;;;;;4.00;4.00;;;;;10.09;57.54;100640.66;5027483;28;10642;-67
2023/03/17 07:25:56;;;;;;;;;5.75;3.50;;;;;10.11;56.97;100639.41;5034137;28;10530;-66
2023/03/17 07:28:23;;;;;;;;;6.25;3.00;;;;;10.13;56.90;100653.53;5023975;28;10385;-66
2023/03/17 07:30:50;;;;;;;;;6.00;5.00;;;;;10.14;57.05;100651.66;5029667;28;10367;-67
2023/03/17 07:33:20;;;;;;;;;7.25;6.50;;;;;10.12;56.75;100643.78;5028943;28;10564;-67
2023/03/17 07:35:48;;;;;;;;;4.50;4.50;;;;;10.08;56.43;100636.28;5038043;28;10601;-66
2023/03/17 07:38:16;;;;;;;;;4.75;4.75;;;;;10.13;56.84;100632.00;5041907;28;10616;-68
2023/03/17 07:40:46;;;;;;;;;5.00;5.00;;;;;10.15;56.46;100635.31;5030993;28;10512;-67
2023/03/17 07:43:14;;;;;;;;;4.00;4.00;;;;;10.20;56.46;100632.03;5031395;28;10653;-67
2023/03/17 07:45:45;;;;;;;;;6.75;6.50;;;;;10.21;56.22;100633.72;5031280;28;10440;-67
2023/03/17 07:48:12;;;;;;;;;5.25;4.00;;;;;10.33;55.72;100636.69;5029570;28;10583;-65
2023/03/17 07:50:39;;;;;;;;;5.25;5.25;;;;;10.42;55.41;100632.00;5030445;28;10464;-67
2023/03/17 07:53:05;;;;;;;;;4.75;4.75;;;;;10.53;55.62;100624.22;5028174;28;10453;-66
2023/03/17 07:55:32;;;;;;;;;4.25;2.75;;;;;10.65;55.76;100624.44;5030035;28;10469;-67
2023/03/17 07:57:59;;;;;;;;;5.75;5.00;;;;;10.76;55.60;100631.97;5030755;28;10391;-67
2023/03/17 08:00:26;;;;;;;;;3.50;3.50;;;;;10.85;55.52;100638.81;5023277;28;10356;-68
2023/03/17 08:02:53;;;;;;;;;4.75;4.75;;;;;10.93;55.22;100628.91;5024999;28;10951;-67
2023/03/17 08:05:35;;;;;;;;;5.25;4.50;;;;;10.96;54.99;100612.34;5020762;28;10365;-67
2023/03/17 08:08:01;;;;;;;;;5.00;2.00;;;;;11.01;54.51;100601.81;5019559;28;10210;-67
2023/03/17 08:10:28;;;;;;;;;7.00;6.50;;;;;11.07;54.81;100606.38;5027259;28;10164;-65
2023/03/17 08:12:55;;;;;;;;;5.75;4.50;;;;;11.12;54.80;100603.91;5026340;28;10420;-70
2023/03/17 08:15:21;;;;;;;;;9.00;7.00;;;;;11.12;54.63;100620.06;5026388;28;10229;-66
2023/03/17 08:17:48;;;;;;;;;6.50;4.00;;;;;11.14;54.64;100634.19;5027145;28;10239;-69
2023/03/17 08:20:15;;;;;;;;;8.75;5.50;;;;;11.19;54.22;100673.97;5035910;28;11184;-68
2023/03/17 08:22:42;;;;;;;;;7.50;6.50;;;;;11.20;53.84;100640.63;5017842;28;11061;-67
2023/03/17 08:25:10;;;;;;;;;7.50;5.00;;;;;11.29;54.05;100653.69;5027369;28;10234;-67
2023/03/17 08:27:37;;;;;;;;;5.00;5.00;;;;;11.35;53.99;100625.09;5031410;28;10249;-67
2023/03/17 08:30:04;;;;;;;;;6.00;6.00;;;;;11.54;54.22;100624.28;5045410;28;10210;-67
2023/03/17 08:32:31;;;;;;;;;4.00;4.00;;;;;11.75;53.44;100612.50;5039793;28;10306;-67
2023/03/17 08:34:57;;;;;;;;;3.50;2.75;;;;;11.93;52.76;100608.38;5022691;28;10197;-67
2023/03/17 08:37:24;;;;;;;;;5.25;3.25;;;;;11.94;52.43;100607.31;5018604;28;10231;-68
2023/03/17 08:39:51;;;;;;;;;7.00;3.50;;;;;12.08;52.38;100601.72;5023430;28;10071;-67
2023/03/17 08:42:17;;;;;;;;;5.50;5.00;;;;;12.31;52.11;100600.41;5026211;28;10064;-66
2023/03/17 08:44:44;;;;;;;;;5.50;5.50;;;;;12.47;52.21;100602.63;5025705;28;10057;-68
2023/03/17 08:47:11;;;;;;;;;6.00;6.00;;;;;12.52;51.30;100594.75;5029296;28;10096;-68
2023/03/17 08:49:37;;;;;;;;;6.00;6.00;;;;;12.61;51.21;100606.13;5025293;28;9996;-69
2023/03/17 08:52:04;;;;;;;;;5.75;5.75;;;;;12.74;51.28;100607.97;5022242;28;9931;-67
2023/03/17 08:54:31;;;;;;;;;9.25;7.00;;;;;12.91;50.92;100597.47;5003768;28;10011;-67
2023/03/17 08:56:57;;;;;;;;;5.00;4.00;;;;;12.98;51.02;100593.72;5024648;28;10186;-68
2023/03/17 08:59:23;;;;;;;;;9.00;7.25;;;;;13.18;50.44;100599.00;5026678;28;9838;-67
2023/03/17 09:01:50;;;;;;;;;6.25;5.50;;;;;13.32;49.92;100611.41;5017266;28;9962;-67
2023/03/17 09:04:16;;;;;;;;;10.00;6.00;;;;;13.43;49.79;100599.06;5023110;28;9867;-68
2023/03/17 09:06:43;;;;;;;;;6.50;6.50;;;;;13.46;49.51;100606.75;5021292;28;12308;-69
2023/03/17 09:09:29;;;;;;;;;12.75;7.25;;;;;13.56;49.47;100619.78;5036213;28;10568;-69
2023/03/17 09:11:56;;;;;;;;;11.50;10.25;;;;;13.69;49.31;100626.97;5026395;28;9698;-66
2023/03/17 09:14:23;;;;;;;;;7.75;6.50;;;;;13.63;49.23;100634.09;5024540;28;9905;-66
2023/03/17 09:16:50;;;;;;;;;7.00;7.00;;;;;13.74;49.65;100629.84;5023780;28;9830;-68
2023/03/17 09:19:16;;;;;;;;;6.75;6.75;;;;;13.81;49.70;100631.47;5022238;28;10471;-67
2023/03/17 09:21:43;;;;;;;;;5.25;4.50;;;;;13.85;49.58;100629.97;5023720;28;9934;-69
2023/03/17 09:24:10;;;;;;;;;7.25;6.75;;;;;13.97;49.61;100631.94;5022490;28;9959;-67
2023/03/17 09:26:36;;;;;;;;;9.00;5.50;;;;;14.07;49.69;100629.56;5038436;28;9656;-67
2023/03/17 09:29:04;;;;;;;;;9.00;9.00;;;;;14.14;49.43;100635.75;5023476;28;9697;-68
2023/03/17 09:31:32;;;;;;;;;8.75;7.25;;;;;14.29;49.68;100644.31;5024400;28;9678;-67
2023/03/17 09:33:58;;;;;;;;;7.25;6.00;;;;;14.32;49.04;100646.59;5022464;28;9728;-67
2023/03/17 09:36:25;;;;;;;;;6.25;6.00;;;;;14.31;49.35;100642.25;5021993;28;9695;-67
2023/03/17 09:38:51;;;;;;;;;11.75;10.00;;;;;14.21;49.82;100654.63;5019383;28;9560;-67
2023/03/17 09:41:40;;;;;;;;;7.50;7.50;;;;;14.06;50.34;100658.50;5024072;28;9612;-68
2023/03/17 09:44:37;;;;;;;;;14.00;12.00;;;;;14.10;50.33;100656.19;5021953;28;9747;-68
2023/03/17 09:47:12;;;;;;;;;10.75;10.75;;;;;14.13;50.75;100655.72;5023513;28;9783;-68
2023/03/17 09:49:53;;;;;;;;;8.00;6.75;;;;;14.20;50.88;100667.34;5025473;28;9748;-68
2023/03/17 09:52:33;;;;;;;;;10.75;10.75;;;;;14.29;50.96;100663.28;5021952;28;9773;-67
2023/03/17 09:55:02;;;;;;;;;10.50;9.75;;;;;14.33;50.69;100671.78;5024177;28;9663;-67
2023/03/17 09:57:33;;;;;;;;;9.00;8.75;;;;;14.32;51.11;100673.66;5026339;28;9880;-67
2023/03/17 10:00:05;;;;;;;;;8.75;6.50;;;;;14.63;51.14;100677.38;5026002;28;9683;-67
2023/03/17 10:02:36;;;;;;;;;9.50;6.25;;;;;14.65;50.66;100686.06;5037283;28;9686;-67
2023/03/17 10:05:11;;;;;;;;;8.75;8.25;;;;;14.63;50.50;100684.66;5031073;28;9726;-67
2023/03/17 10:07:45;;;;;;;;;8.50;8.50;;;;;14.61;51.10;100684.88;5028175;28;9553;-67
2023/03/17 10:10:27;;;;;;;;;10.00;9.00;;;;;14.69;51.37;100692.69;5028925;28;9528;-68
2023/03/17 10:13:42;;;;;;;;;11.00;11.00;;;;;14.71;50.80;100701.44;5028421;28;9680;-68
2023/03/17 10:16:17;;;;;;;;;9.75;9.75;;;;;14.83;50.72;100699.66;5020558;28;9671;-68
2023/03/17 10:18:50;;;;;;;;;9.50;7.25;;;;;14.94;50.87;100705.34;5027904;28;9686;-67
2023/03/17 10:21:23;;;;;;;;;9.50;9.00;;;;;14.76;50.28;100688.03;5031116;28;9512;-70
2023/03/17 10:23:52;;;;;;;;;12.00;9.50;;;;;14.57;51.00;100699.91;5032050;28;9438;-66
2023/03/17 10:26:38;;;;;;;;;8.00;8.00;;;;;14.49;51.94;100705.63;5032024;28;9722;-68
2023/03/17 10:29:12;;;;;;;;;7.00;7.00;;;;;14.51;52.24;100709.78;5027356;28;9615;-66
2023/03/17 10:31:39;;;;;;;;;10.75;8.00;;;;;14.48;52.13;100717.50;5029850;28;9610;-68
2023/03/17 10:34:28;;;;;;;;;10.25;10.00;;;;;14.43;52.62;100717.34;5029723;28;9612;-67
2023/03/17 10:37:02;;;;;;;;;10.00;10.00;;;;;14.40;52.59;100720.47;5038023;28;9549;-66
2023/03/17 10:39:29;;;;;;;;;7.75;7.00;;;;;14.46;52.50;100719.56;5029703;28;9678;-66
2023/03/17 10:42:18;;;;;;;;;8.00;8.00;;;;;14.64;52.86;100725.06;5032922;28;9603;-67
2023/03/17 10:45:15;;;;;;;;;8.00;8.00;;;;;14.93;52.42;100725.38;5045582;28;10385;-66
2023/03/17 10:47:49;;;;;;;;;13.75;12.25;;;;;15.05;51.52;100718.16;5027525;28;9682;-66
2023/03/17 10:50:32;;;;;;;;;8.50;8.50;;;;;15.24;51.47;100708.97;5023488;28;9702;-67
2023/03/17 10:53:04;;;;;;;;;13.00;11.25;;;;;15.24;51.10;100710.84;5024837;28;9605;-66
2023/03/17 10:55:37;;;;;;;;;10.00;10.00;;;;;15.15;51.59;100714.91;5030282;28;9619;-67
2023/03/17 10:58:47;;;;;;;;;10.25;9.75;;;;;15.02;52.02;100714.00;5025332;28;9467;-66
2023/03/17 11:01:28;;;;;;;;;11.75;11.25;;;;;15.14;52.56;100708.66;5024121;28;10372;-66
2023/03/17 11:03:56;;;;;;;;;11.25;11.25;;;;;15.18;52.64;100704.44;5020476;28;10277;-68
2023/03/17 11:06:38;;;;;;;;;7.50;7.00;;;;;15.18;52.06;100701.72;5033568;28;9796;-67
2023/03/17 11:09:08;;;;;;;;;12.00;10.25;;;;;15.29;52.24;100694.72;5031797;28;9750;-65
2023/03/17 11:11:43;;;;;;;;;11.50;10.50;;;;;15.31;52.23;100690.72;5038735;28;9632;-68
2023/03/17 11:14:12;;;;;;;;;13.50;11.25;;;;;15.31;51.92;100685.28;5030914;28;10193;-66
2023/03/17 11:16:52;;;;;;;;;17.00;12.00;;;;;15.26;52.44;100679.72;5032536;28;9687;-66
2023/03/17 11:19:28;;;;;;;;;7.25;6.75;;;;;15.11;52.38;100667.59;5021205;28;9459;-67
2023/03/17 11:22:08;;;;;;;;;10.00;9.00;;;;;15.13;52.66;100681.78;5012732;28;9513;-66
2023/03/17 11:24:51;;;;;;;;;12.00;12.00;;;;;15.15;52.63;100685.94;5015479;28;9449;-66
2023/03/17 11:27:29;;;;;;;;;14.75;12.75;;;;;15.22;52.90;100683.94;5027719;28;9741;-65
2023/03/17 11:30:08;;;;;;;;;14.00;14.00;;;;;15.29;53.05;100681.97;5027281;28;9619;-66
2023/03/17 11:33:06;;;;;;;;;13.00;11.75;;;;;15.31;53.04;100684.44;5046932;28;9616;-66
2023/03/17 11:35:38;;;;;;;;;8.50;8.50;;;;;15.32;53.00;100670.66;5044701;28;9605;-66
2023/03/17 11:38:17;;;;;;;;;11.50;11.50;;;;;15.31;53.15;100669.03;5025813;28;9605;-66
2023/03/17 11:41:05;;;;;;;;;12.25;11.75;;;;;15.32;52.82;100667.97;5023028;28;9526;-67